Time;durP1;ratioP1;P1;durP2;ratioP2;P2;SDS_P1;SDS_P2;PMS_P1;PMS_P2;Temp;Humidity;BMP_temperature;BMP_pressure;BME280_temperature;BME280_humidity;BME280_pressure;Samples;Min_cycle;Max_cycle;Signal;HPM_P1;HPM_P2
2022/10/10 00:00:22;;;;;;;;;;;;;;;21.55;64.79;99889.78;7314906;19;129705;-38
2022/10/10 00:02:47;;;;;;;;;;;;;;;21.52;64.54;99892.66;7312514;19;129328;-37
2022/10/10 00:05:12;;;;;;;;;;;;;;;21.44;65.02;99868.97;7311337;19;129062;-40
2022/10/10 00:07:38;;;;;;;;;;;;;;;21.54;64.64;99880.28;7313726;19;131051;-39
2022/10/10 00:10:03;;;;;;;;;;;;;;;21.52;64.35;99887.44;7305661;19;130331;-43
2022/10/10 00:12:28;;;;;;;;;;;;;;;21.47;65.20;99868.69;7308559;19;129052;-38
2022/10/10 00:14:54;;;;;;;;;;;;;;;21.54;65.19;99877.69;7314997;19;129304;-38
2022/10/10 00:17:19;;;;;;;;;;;;;;;21.54;64.81;99869.00;7313814;19;130052;-39
2022/10/10 00:19:44;;;;;;;;;;;;;;;21.53;64.98;99867.34;7314270;19;129444;-38
2022/10/10 00:22:09;;;;;;;;;;;;;;;21.56;64.65;99873.16;7309269;19;131790;-39
2022/10/10 00:24:34;;;;;;;;;;;;;;;21.55;64.53;99863.63;7315414;19;130885;-38
2022/10/10 00:27:00;;;;;;;;;;;;;;;21.55;64.96;99866.25;7293820;19;130157;-39
2022/10/10 00:29:25;;;;;;;;;;;;;;;21.53;65.13;99868.19;7308003;19;129663;-40
2022/10/10 00:31:50;;;;;;;;;;;;;;;21.53;64.95;99869.97;7304201;19;130459;-38
2022/10/10 00:34:16;;;;;;;;;;;;;;;21.57;64.76;99864.31;7306118;19;129378;-39
2022/10/10 00:36:41;;;;;;;;;;;;;;;21.59;64.92;99872.03;7311847;19;130335;-39
2022/10/10 00:39:06;;;;;;;;;;;;;;;21.56;64.47;99861.84;7313618;19;129245;-38
2022/10/10 00:41:31;;;;;;;;;;;;;;;21.55;64.97;99861.00;7314438;19;129803;-38
2022/10/10 00:44:04;;;;;;;;;;;;;;;21.54;65.29;99864.59;7313918;19;129195;-38
2022/10/10 00:46:30;;;;;;;;;;;;;;;21.54;65.17;99864.59;7310390;19;131046;-40
2022/10/10 00:48:55;;;;;;;;;;;;;;;21.58;64.91;99870.41;7313912;19;129785;-37
2022/10/10 00:51:20;;;;;;;;;;;;;;;21.55;64.64;99866.25;7314374;19;129084;-38
2022/10/10 00:53:45;;;;;;;;;;;;;;;21.52;64.91;99853.44;7314002;19;129298;-39
2022/10/10 00:56:11;;;;;;;;;;;;;;;21.53;65.24;99857.72;7307506;19;129887;-39
2022/10/10 00:58:39;;;;;;;;;;;;;;;21.54;64.63;99863.75;7311986;19;130356;-38
2022/10/10 01:01:05;;;;;;;;;;;;;;;21.46;64.74;99850.53;7312781;19;129025;-39
2022/10/10 01:03:30;;;;;;;;;;;;;;;21.57;65.23;99851.25;7312274;19;130002;-39
2022/10/10 01:05:56;;;;;;;;;;;;;;;21.47;65.39;99833.88;7311348;19;129690;-38
2022/10/10 01:08:21;;;;;;;;;;;;;;;21.55;64.95;99850.53;7313199;19;129918;-39
2022/10/10 01:10:57;;;;;;;;;;;;;;;21.51;65.29;99849.19;7314159;19;131149;-37
2022/10/10 01:13:22;;;;;;;;;;;;;;;21.42;65.25;99836.88;7312765;19;130070;-39
2022/10/10 01:15:50;;;;;;;;;;;;;;;21.54;65.07;99843.66;7301952;19;130134;-42
2022/10/10 01:18:16;;;;;;;;;;;;;;;21.57;64.92;99846.00;7305589;19;130047;-38
2022/10/10 01:20:56;;;;;;;;;;;;;;;21.50;65.00;99852.72;7314477;19;128852;-39
2022/10/10 01:23:57;;;;;;;;;;;;;;;21.44;64.90;99832.34;7311761;19;129285;-38
2022/10/10 01:26:45;;;;;;;;;;;;;;;21.51;65.47;99838.72;7304903;19;130357;-38
2022/10/10 01:29:28;;;;;;;;;;;;;;;21.55;65.45;99824.38;7311836;19;129607;-38
2022/10/10 01:31:55;;;;;;;;;;;;;;;21.53;65.45;99834.19;7311298;19;129346;-39
2022/10/10 01:34:28;;;;;;;;;;;;;;;21.48;64.79;99828.50;7312236;19;129073;-39
2022/10/10 01:37:12;;;;;;;;;;;;;;;21.42;65.16;99813.34;7310634;19;129504;-38
2022/10/10 01:39:41;;;;;;;;;;;;;;;21.51;65.42;99828.25;7310791;19;130364;-40
2022/10/10 01:42:12;;;;;;;;;;;;;;;21.54;65.32;99822.75;7310177;19;129046;-37
2022/10/10 01:44:42;;;;;;;;;;;;;;;21.45;64.56;99807.84;7310827;19;128986;-38
2022/10/10 01:47:08;;;;;;;;;;;;;;;21.54;65.09;99817.50;7312270;19;129307;-37
2022/10/10 01:49:33;;;;;;;;;;;;;;;21.57;64.97;99812.00;7311801;19;129750;-37
2022/10/10 01:51:59;;;;;;;;;;;;;;;21.56;65.23;99812.13;7310704;19;129032;-38
2022/10/10 01:54:27;;;;;;;;;;;;;;;21.55;65.42;99806.06;7312466;19;129938;-39
2022/10/10 01:57:11;;;;;;;;;;;;;;;21.58;65.29;99808.44;7308301;19;129715;-38
2022/10/10 01:59:45;;;;;;;;;;;;;;;21.46;64.38;99793.81;7310453;19;130336;-38
2022/10/10 02:02:14;;;;;;;;;;;;;;;21.51;64.73;99802.09;7310781;19;128999;-39
2022/10/10 02:04:49;;;;;;;;;;;;;;;21.50;65.07;99800.41;7312011;19;129664;-38
2022/10/10 02:07:20;;;;;;;;;;;;;;;21.54;65.53;99800.97;7311238;19;130389;-40
2022/10/10 02:09:47;;;;;;;;;;;;;;;21.54;64.58;99791.34;7312672;19;129231;-38
2022/10/10 02:12:13;;;;;;;;;;;;;;;21.56;64.68;99789.44;7310819;19;130088;-38
2022/10/10 02:14:43;;;;;;;;;;;;;;;21.55;64.31;99786.94;7311947;19;128980;-40
2022/10/10 02:17:11;;;;;;;;;;;;;;;21.56;65.06;99775.50;7307397;19;130141;-39
2022/10/10 02:19:37;;;;;;;;;;;;;;;21.53;65.14;99770.56;7311722;19;129739;-37
2022/10/10 02:22:04;;;;;;;;;;;;;;;21.55;65.14;99763.41;7309294;19;129359;-40
2022/10/10 02:24:29;;;;;;;;;;;;;;;21.51;65.08;99768.09;7310992;19;128816;-40
2022/10/10 02:27:00;;;;;;;;;;;;;;;21.47;65.42;99748.38;7309580;19;130350;-39
2022/10/10 02:29:28;;;;;;;;;;;;;;;21.54;65.32;99764.34;7310196;19;129660;-38
2022/10/10 02:32:05;;;;;;;;;;;;;;;21.50;64.83;99765.59;7311206;19;130249;-38
2022/10/10 02:34:39;;;;;;;;;;;;;;;21.53;65.16;99774.00;7310036;19;129534;-39
2022/10/10 02:37:11;;;;;;;;;;;;;;;21.47;65.07;99750.97;7308727;19;131038;-37
2022/10/10 02:39:40;;;;;;;;;;;;;;;21.52;64.70;99748.78;7304490;19;131029;-37
2022/10/10 02:42:07;;;;;;;;;;;;;;;21.53;65.26;99752.25;7309546;19;129291;-39
2022/10/10 02:44:32;;;;;;;;;;;;;;;21.51;64.77;99749.78;7316592;19;129305;-38
2022/10/10 02:46:58;;;;;;;;;;;;;;;21.56;65.27;99747.56;7316367;19;129277;-39
2022/10/10 02:49:30;;;;;;;;;;;;;;;21.53;64.59;99741.78;7317036;19;130054;-40
2022/10/10 02:51:55;;;;;;;;;;;;;;;21.53;65.22;99736.56;7316926;19;129406;-38
2022/10/10 02:54:21;;;;;;;;;;;;;;;21.57;65.10;99741.38;7316347;19;130853;-38
2022/10/10 02:56:46;;;;;;;;;;;;;;;21.52;65.28;99729.66;7315473;19;130552;-38
2022/10/10 02:59:11;;;;;;;;;;;;;;;21.56;64.86;99737.09;7315087;19;130528;-40
2022/10/10 03:01:37;;;;;;;;;;;;;;;21.44;65.55;99717.25;7318006;19;129001;-38
2022/10/10 03:04:02;;;;;;;;;;;;;;;21.54;64.59;99728.56;7316965;19;130434;-39
2022/10/10 03:06:27;;;;;;;;;;;;;;;21.56;65.22;99731.03;7311371;19;130202;-38
2022/10/10 03:08:52;;;;;;;;;;;;;;;21.55;64.98;99727.59;7313485;19;130655;-40
2022/10/10 03:11:18;;;;;;;;;;;;;;;21.55;64.86;99730.19;7310599;19;131086;-40
2022/10/10 03:13:43;;;;;;;;;;;;;;;21.51;64.92;99726.22;7318326;19;129050;-39
2022/10/10 03:16:10;;;;;;;;;;;;;;;21.42;65.05;99703.47;7314559;19;130460;-38
2022/10/10 03:18:35;;;;;;;;;;;;;;;21.53;65.63;99720.84;7307713;19;129768;-39
2022/10/10 03:21:00;;;;;;;;;;;;;;;21.54;64.80;99712.88;7309308;19;130132;-40
2022/10/10 03:23:25;;;;;;;;;;;;;;;21.55;65.42;99708.47;7316274;19;129131;-38
2022/10/10 03:25:51;;;;;;;;;;;;;;;21.42;65.13;99695.63;7315291;19;129735;-37
2022/10/10 03:28:16;;;;;;;;;;;;;;;21.53;64.67;99700.75;7314759;19;129102;-39
2022/10/10 03:30:42;;;;;;;;;;;;;;;21.44;65.41;99687.66;7315947;19;130370;-37
2022/10/10 03:33:08;;;;;;;;;;;;;;;21.55;65.54;99695.38;7317224;19;128910;-39
2022/10/10 03:35:33;;;;;;;;;;;;;;;21.51;65.18;99705.28;7313923;19;130603;-38
2022/10/10 03:37:58;;;;;;;;;;;;;;;21.55;64.80;99690.97;7316264;19;129438;-39
2022/10/10 03:40:24;;;;;;;;;;;;;;;21.54;65.04;99684.09;7313895;19;131643;-38
2022/10/10 03:42:49;;;;;;;;;;;;;;;21.55;65.05;99685.72;7316691;19;129479;-39
2022/10/10 03:45:15;;;;;;;;;;;;;;;21.52;65.49;99683.41;7313864;19;130401;-40
2022/10/10 03:47:40;;;;;;;;;;;;;;;21.51;65.34;99689.59;7315637;19;129185;-37
2022/10/10 03:50:05;;;;;;;;;;;;;;;21.54;65.56;99673.63;7315220;19;128998;-39
2022/10/10 03:52:31;;;;;;;;;;;;;;;21.53;65.19;99672.00;7313054;19;129265;-40
2022/10/10 03:54:56;;;;;;;;;;;;;;;21.43;65.16;99660.69;7295667;19;131600;-38
2022/10/10 03:57:21;;;;;;;;;;;;;;;21.46;65.16;99651.72;7301841;19;130760;-40
2022/10/10 03:59:47;;;;;;;;;;;;;;;21.50;64.73;99659.16;7305767;19;129908;-39
2022/10/10 04:02:12;;;;;;;;;;;;;;;21.51;65.77;99666.06;7301822;19;129797;-40
2022/10/10 04:04:37;;;;;;;;;;;;;;;21.52;65.71;99659.84;7304534;19;130395;-40
2022/10/10 04:07:03;;;;;;;;;;;;;;;21.51;65.55;99647.75;7313541;19;130793;-39
2022/10/10 04:09:28;;;;;;;;;;;;;;;21.52;65.32;99656.41;7303089;19;129321;-39
2022/10/10 04:11:53;;;;;;;;;;;;;;;21.51;65.02;99645.13;7313905;19;129195;-38
2022/10/10 04:14:18;;;;;;;;;;;;;;;21.56;64.79;99637.69;7314781;19;130217;-38
2022/10/10 04:16:44;;;;;;;;;;;;;;;21.46;65.11;99626.41;7311590;19;131246;-40
2022/10/10 04:19:09;;;;;;;;;;;;;;;21.54;65.13;99641.41;7315868;19;129109;-38
2022/10/10 04:21:34;;;;;;;;;;;;;;;21.54;65.16;99630.94;7313181;19;129726;-38
2022/10/10 04:23:59;;;;;;;;;;;;;;;21.56;65.35;99629.84;7314919;19;129583;-37
2022/10/10 04:26:25;;;;;;;;;;;;;;;21.56;64.71;99621.16;7312750;19;130921;-38
2022/10/10 04:28:50;;;;;;;;;;;;;;;21.55;65.51;99625.56;7315268;19;129255;-40
2022/10/10 04:31:15;;;;;;;;;;;;;;;21.52;65.53;99620.63;7314319;19;129328;-37
2022/10/10 04:33:40;;;;;;;;;;;;;;;21.42;65.20;99611.94;7312419;19;130167;-38
2022/10/10 04:36:06;;;;;;;;;;;;;;;21.50;64.78;99622.53;7311667;19;129690;-37
2022/10/10 04:38:31;;;;;;;;;;;;;;;21.51;65.20;99623.38;7312802;19;129864;-38
2022/10/10 04:40:56;;;;;;;;;;;;;;;21.49;64.85;99620.06;7305734;19;130857;-42
2022/10/10 04:43:22;;;;;;;;;;;;;;;21.49;65.23;99615.66;7308744;19;130137;-37
2022/10/10 04:45:47;;;;;;;;;;;;;;;21.58;64.81;99609.63;7311046;19;130432;-41
2022/10/10 04:48:12;;;;;;;;;;;;;;;21.52;65.24;99609.31;7313753;19;129079;-39
2022/10/10 04:50:38;;;;;;;;;;;;;;;21.46;65.24;99583.72;7304989;19;131231;-38
2022/10/10 04:53:03;;;;;;;;;;;;;;;21.55;65.56;99607.25;7311224;19;129473;-40
2022/10/10 04:55:28;;;;;;;;;;;;;;;21.49;65.12;99594.75;7306997;19;130749;-39
2022/10/10 04:57:54;;;;;;;;;;;;;;;21.49;65.50;99610.44;7308094;19;130766;-39
2022/10/10 05:00:19;;;;;;;;;;;;;;;21.43;65.04;99589.22;7310526;19;129347;-39
2022/10/10 05:02:44;;;;;;;;;;;;;;;21.54;65.17;99592.53;7303337;19;130183;-38
2022/10/10 05:05:09;;;;;;;;;;;;;;;21.53;64.70;99598.75;7304163;19;130291;-38
2022/10/10 05:07:35;;;;;;;;;;;;;;;21.43;65.05;99584.84;7307164;19;129294;-38
2022/10/10 05:10:01;;;;;;;;;;;;;;;21.53;64.87;99590.06;7305576;19;129997;-39
2022/10/10 05:12:26;;;;;;;;;;;;;;;21.50;65.24;99596.38;7305866;19;132807;-38
2022/10/10 05:14:51;;;;;;;;;;;;;;;21.48;65.36;99598.34;7296861;19;130044;-37
2022/10/10 05:17:16;;;;;;;;;;;;;;;21.46;65.29;99573.25;7304198;19;129349;-40
2022/10/10 05:19:42;;;;;;;;;;;;;;;21.54;65.31;99589.06;7302059;19;129987;-39
2022/10/10 05:22:07;;;;;;;;;;;;;;;21.51;65.03;99581.50;7307254;19;129066;-41
2022/10/10 05:24:33;;;;;;;;;;;;;;;21.53;64.90;99579.59;7312344;19;130650;-41
2022/10/10 05:26:58;;;;;;;;;;;;;;;21.56;65.14;99582.75;7308120;19;129238;-40
2022/10/10 05:29:24;;;;;;;;;;;;;;;21.54;64.86;99581.22;7307742;19;129249;-37
2022/10/10 05:31:49;;;;;;;;;;;;;;;21.54;64.96;99581.22;7307375;19;131224;-39
2022/10/10 05:34:14;;;;;;;;;;;;;;;21.53;65.36;99575.19;7307066;19;130168;-39
2022/10/10 05:36:40;;;;;;;;;;;;;;;21.49;65.72;99576.44;7304640;19;129597;-38
2022/10/10 05:39:06;;;;;;;;;;;;;;;21.48;65.64;99566.94;7310190;19;129019;-37
2022/10/10 05:41:31;;;;;;;;;;;;;;;21.54;64.76;99576.84;7312636;19;130106;-39
2022/10/10 05:43:56;;;;;;;;;;;;;;;21.55;65.39;99568.00;7306921;19;129813;-40
2022/10/10 05:46:23;;;;;;;;;;;;;;;21.53;65.35;99577.81;7310210;19;129404;-38
2022/10/10 05:48:49;;;;;;;;;;;;;;;21.54;64.90;99571.59;7310181;19;129639;-39
2022/10/10 05:51:14;;;;;;;;;;;;;;;21.53;65.50;99564.72;7312231;19;129444;-41
2022/10/10 05:53:40;;;;;;;;;;;;;;;21.53;64.88;99567.34;7310974;19;129875;-37
2022/10/10 05:56:05;;;;;;;;;;;;;;;21.55;65.81;99568.00;7307891;19;129380;-39
2022/10/10 05:58:30;;;;;;;;;;;;;;;21.54;65.43;99560.31;7311265;19;129211;-38
2022/10/10 06:01:00;;;;;;;;;;;;;;;21.53;65.14;99558.66;7311865;19;129962;-38
2022/10/10 06:03:25;;;;;;;;;;;;;;;21.52;65.40;99557.84;7309103;19;130456;-39
2022/10/10 06:05:51;;;;;;;;;;;;;;;21.51;64.89;99555.34;7311034;19;129355;-37
2022/10/10 06:08:16;;;;;;;;;;;;;;;21.49;64.88;99563.34;7307019;19;129283;-38
2022/10/10 06:10:42;;;;;;;;;;;;;;;21.44;64.92;99549.88;7307222;19;129674;-40
2022/10/10 06:13:09;;;;;;;;;;;;;;;21.53;64.80;99558.66;7303587;19;129677;-39
2022/10/10 06:15:34;;;;;;;;;;;;;;;21.55;65.49;99568.00;7310482;19;129040;-40
2022/10/10 06:17:59;;;;;;;;;;;;;;;21.58;64.97;99569.53;7310885;19;129094;-37
2022/10/10 06:20:24;;;;;;;;;;;;;;;21.54;65.06;99569.00;7318478;19;129273;-38
2022/10/10 06:22:50;;;;;;;;;;;;;;;21.47;64.80;99559.25;7313513;19;129179;-38
2022/10/10 06:25:15;;;;;;;;;;;;;;;21.55;65.34;99575.84;7315957;19;129517;-38
2022/10/10 06:27:41;;;;;;;;;;;;;;;21.51;65.33;99576.28;7318764;19;129892;-38
2022/10/10 06:30:06;;;;;;;;;;;;;;;21.46;65.22;99568.88;7317326;19;129445;-39
2022/10/10 06:32:31;;;;;;;;;;;;;;;21.43;65.50;99553.47;7316946;19;130363;-37
2022/10/10 06:34:56;;;;;;;;;;;;;;;21.53;65.77;99569.97;7317104;19;129537;-39
2022/10/10 06:37:22;;;;;;;;;;;;;;;21.55;65.59;99573.25;7315235;19;129212;-40
2022/10/10 06:39:47;;;;;;;;;;;;;;;21.53;65.14;99569.97;7316529;19;129706;-38
2022/10/10 06:42:12;;;;;;;;;;;;;;;21.49;65.32;99568.59;7315657;19;129219;-38
2022/10/10 06:44:37;;;;;;;;;;;;;;;21.53;64.93;99575.19;7316811;19;129566;-38
2022/10/10 06:47:03;;;;;;;;;;;;;;;21.51;65.37;99571.88;7316799;19;129081;-42
2022/10/10 06:49:28;;;;;;;;;;;;;;;21.37;65.08;99564.44;7317525;19;129173;-38
2022/10/10 06:51:54;;;;;;;;;;;;;;;21.47;65.26;99586.19;7316150;19;130145;-38
2022/10/10 06:54:19;;;;;;;;;;;;;;;21.50;65.61;99574.66;7318151;19;129419;-38
2022/10/10 06:56:44;;;;;;;;;;;;;;;21.49;65.75;99579.03;7314706;19;129477;-37
2022/10/10 06:59:09;;;;;;;;;;;;;;;21.39;65.16;99567.75;7318675;19;129085;-38
2022/10/10 07:01:34;;;;;;;;;;;;;;;21.41;65.44;99565.84;7315136;19;129512;-40
2022/10/10 07:04:00;;;;;;;;;;;;;;;21.51;65.06;99582.34;7318063;19;129487;-37
2022/10/10 07:06:25;;;;;;;;;;;;;;;21.50;64.82;99585.13;7314610;19;129357;-38
2022/10/10 07:08:50;;;;;;;;;;;;;;;21.48;65.54;99587.88;7316465;19;129209;-38
2022/10/10 07:11:16;;;;;;;;;;;;;;;21.52;64.83;99597.06;7318118;19;129540;-38
2022/10/10 07:13:41;;;;;;;;;;;;;;;21.54;65.69;99587.31;7315687;19;128927;-39
2022/10/10 07:16:06;;;;;;;;;;;;;;;21.52;65.51;99599.69;7315001;19;129037;-39
2022/10/10 07:18:32;;;;;;;;;;;;;;;21.53;65.02;99609.19;7302433;19;131210;-37
2022/10/10 07:20:58;;;;;;;;;;;;;;;21.50;65.36;99609.44;7305121;19;131904;-39
2022/10/10 07:23:24;;;;;;;;;;;;;;;21.52;65.88;99594.44;7309123;19;131634;-41
2022/10/10 07:25:49;;;;;;;;;;;;;;;21.52;65.44;99602.31;7305651;19;130722;-38
2022/10/10 07:28:15;;;;;;;;;;;;;;;21.53;65.13;99601.34;7314470;19;129598;-38
2022/10/10 07:30:44;;;;;;;;;;;;;;;21.53;65.51;99601.34;7308021;19;130595;-39
2022/10/10 07:33:09;;;;;;;;;;;;;;;21.51;65.77;99603.28;7312713;19;129067;-38
2022/10/10 07:35:35;;;;;;;;;;;;;;;21.51;65.06;99597.22;7312395;19;129071;-40
2022/10/10 07:38:00;;;;;;;;;;;;;;;21.54;65.28;99608.22;7309987;19;129913;-42
2022/10/10 07:40:26;;;;;;;;;;;;;;;21.52;65.01;99610.16;7314642;19;129509;-40
2022/10/10 07:42:51;;;;;;;;;;;;;;;21.43;65.65;99600.53;7314172;19;129097;-37
2022/10/10 07:45:16;;;;;;;;;;;;;;;21.53;65.27;99606.59;7314749;19;129174;-39
2022/10/10 07:47:41;;;;;;;;;;;;;;;21.52;65.18;99609.31;7312700;19;131341;-39
2022/10/10 07:50:09;;;;;;;;;;;;;;;21.53;64.91;99610.97;7316308;19;131297;-37
2022/10/10 07:52:34;;;;;;;;;;;;;;;21.51;64.89;99613.75;7314887;19;128834;-38
2022/10/10 07:55:00;;;;;;;;;;;;;;;21.48;65.13;99607.97;7314376;19;131246;-38
2022/10/10 07:57:25;;;;;;;;;;;;;;;21.52;65.35;99615.38;7315163;19;129289;-37
2022/10/10 07:59:51;;;;;;;;;;;;;;;21.52;65.79;99610.16;7309007;19;131135;-42
2022/10/10 08:02:16;;;;;;;;;;;;;;;21.53;65.71;99603.97;7307769;19;130307;-42
2022/10/10 08:04:41;;;;;;;;;;;;;;;21.52;64.92;99619.78;7311800;19;130350;-38
2022/10/10 08:07:07;;;;;;;;;;;;;;;21.52;65.34;99615.38;7309439;19;130770;-39
2022/10/10 08:09:32;;;;;;;;;;;;;;;21.55;65.60;99619.53;7316471;19;130763;-40
2022/10/10 08:11:57;;;;;;;;;;;;;;;21.53;65.07;99617.06;7307554;19;129112;-38
2022/10/10 08:14:23;;;;;;;;;;;;;;;21.51;65.12;99613.75;7315580;19;129099;-39
2022/10/10 08:16:48;;;;;;;;;;;;;;;21.46;65.86;99620.34;7306892;19;130983;-40
2022/10/10 08:19:13;;;;;;;;;;;;;;;21.52;65.28;99615.38;7315020;19;129599;-38
2022/10/10 08:21:38;;;;;;;;;;;;;;;21.49;65.96;99610.44;7306731;19;129615;-38
2022/10/10 08:24:04;;;;;;;;;;;;;;;21.52;65.07;99620.63;7306876;19;130336;-38
2022/10/10 08:26:29;;;;;;;;;;;;;;;21.48;65.21;99610.56;7303225;19;131063;-40
2022/10/10 08:28:55;;;;;;;;;;;;;;;21.50;65.42;99612.06;7306595;19;130661;-38
2022/10/10 08:31:20;;;;;;;;;;;;;;;21.50;65.25;99627.75;7308968;19;129058;-38
2022/10/10 08:33:46;;;;;;;;;;;;;;;21.50;64.86;99624.34;7313698;19;129656;-38
2022/10/10 08:36:16;;;;;;;;;;;;;;;21.53;65.49;99622.28;7312971;19;130470;-39
2022/10/10 08:38:41;;;;;;;;;;;;;;;21.52;65.27;99620.63;7309167;19;132891;-39
2022/10/10 08:41:09;;;;;;;;;;;;;;;21.50;65.35;99622.53;7314965;19;129042;-38
2022/10/10 08:43:39;;;;;;;;;;;;;;;21.49;65.74;99613.03;7314076;19;129619;-37
2022/10/10 08:46:12;;;;;;;;;;;;;;;21.51;65.27;99618.97;7307954;19;131291;-39
2022/10/10 08:48:38;;;;;;;;;;;;;;;21.53;65.66;99619.66;7311330;19;129360;-38
2022/10/10 08:51:07;;;;;;;;;;;;;;;21.41;65.61;99601.63;7306944;19;129566;-37
2022/10/10 08:53:33;;;;;;;;;;;;;;;21.51;65.72;99612.91;7309842;19;129289;-38
2022/10/10 08:55:59;;;;;;;;;;;;;;;21.52;65.10;99615.38;7303470;19;131037;-38
2022/10/10 08:58:30;;;;;;;;;;;;;;;21.38;65.40;99597.50;7304343;19;130646;-39
2022/10/10 09:01:04;;;;;;;;;;;;;;;21.52;65.60;99615.38;7311791;19;130440;-38
2022/10/10 09:03:44;;;;;;;;;;;;;;;21.52;65.87;99615.38;7307332;19;130860;-43
2022/10/10 09:06:28;;;;;;;;;;;;;;;21.51;64.98;99613.75;7311396;19;130723;-39
2022/10/10 09:08:53;;;;;;;;;;;;;;;21.46;65.62;99609.88;7311887;19;129386;-39
2022/10/10 09:11:41;;;;;;;;;;;;;;;21.50;64.93;99612.06;7308989;19;145246;-37
2022/10/10 09:14:18;;;;;;;;;;;;;;;21.44;65.11;99591.72;7311572;19;128881;-40
2022/10/10 09:16:49;;;;;;;;;;;;;;;21.51;65.15;99607.69;7311820;19;129379;-37
2022/10/10 09:19:36;;;;;;;;;;;;;;;21.47;65.71;99601.88;7309311;19;130258;-40
2022/10/10 09:22:03;;;;;;;;;;;;;;;21.50;65.51;99600.81;7299747;19;130996;-38
2022/10/10 09:24:31;;;;;;;;;;;;;;;21.47;65.50;99606.31;7311914;19;128857;-39
2022/10/10 09:27:00;;;;;;;;;;;;;;;21.51;66.08;99597.22;7311801;19;130018;-40
2022/10/10 09:29:32;;;;;;;;;;;;;;;21.52;65.05;99599.69;7307565;19;130653;-38
2022/10/10 09:31:57;;;;;;;;;;;;;;;21.47;65.67;99596.66;7312541;19;130859;-39
2022/10/10 09:34:22;;;;;;;;;;;;;;;21.54;65.60;99602.16;7312498;19;129003;-38
2022/10/10 09:36:48;;;;;;;;;;;;;;;21.44;65.23;99576.00;7311590;19;130274;-38
2022/10/10 09:39:26;;;;;;;;;;;;;;;21.53;65.01;99601.34;7312573;19;129826;-37
2022/10/10 09:41:51;;;;;;;;;;;;;;;21.51;65.28;99592.81;7313905;19;130974;-39
2022/10/10 09:44:18;;;;;;;;;;;;;;;21.52;65.08;99594.44;7310362;19;130546;-38
2022/10/10 09:46:43;;;;;;;;;;;;;;;21.48;65.42;99595.72;7304360;19;130346;-39
2022/10/10 09:49:12;;;;;;;;;;;;;;;21.52;65.10;99589.22;7304296;19;130480;-39
2022/10/10 09:51:37;;;;;;;;;;;;;;;21.49;65.13;99592.13;7311961;19;129744;-38
2022/10/10 09:54:03;;;;;;;;;;;;;;;21.49;65.57;99589.50;7320224;19;129888;-37
2022/10/10 09:56:37;;;;;;;;;;;;;;;21.44;66.05;99586.47;7313415;19;129963;-38
2022/10/10 09:59:02;;;;;;;;;;;;;;;21.46;65.29;99587.19;7318945;19;130198;-38
2022/10/10 10:01:30;;;;;;;;;;;;;;;21.44;65.75;99581.25;7319002;19;128991;-39
2022/10/10 10:04:07;;;;;;;;;;;;;;;21.49;65.44;99584.28;7311559;19;129644;-41
2022/10/10 10:06:32;;;;;;;;;;;;;;;21.47;65.50;99586.19;7315025;19;131859;-39
2022/10/10 10:09:01;;;;;;;;;;;;;;;21.51;65.94;99590.19;7313680;19;130872;-38
2022/10/10 10:11:30;;;;;;;;;;;;;;;21.51;65.77;99595.44;7312994;19;129928;-38
2022/10/10 10:13:55;;;;;;;;;;;;;;;21.52;65.05;99586.59;7318007;19;129542;-37
2022/10/10 10:16:29;;;;;;;;;;;;;;;21.49;65.57;99589.50;7315312;19;129460;-39
2022/10/10 10:18:54;;;;;;;;;;;;;;;21.38;65.77;99573.13;7318891;19;129506;-40
2022/10/10 10:21:22;;;;;;;;;;;;;;;21.46;65.56;99584.56;7318033;19;129168;-40
2022/10/10 10:23:58;;;;;;;;;;;;;;;21.48;65.94;99581.81;7318161;19;128978;-36
2022/10/10 10:26:23;;;;;;;;;;;;;;;21.50;65.29;99588.53;7316016;19;130651;-38
2022/10/10 10:28:49;;;;;;;;;;;;;;;21.48;65.33;99587.03;7315974;19;130885;-41
2022/10/10 10:31:23;;;;;;;;;;;;;;;21.54;65.59;99592.53;7315043;19;129516;-39
2022/10/10 10:33:56;;;;;;;;;;;;;;;21.36;65.40;99573.28;7317558;19;129040;-39
2022/10/10 10:36:34;;;;;;;;;;;;;;;21.51;65.20;99592.81;7316212;19;130092;-37
2022/10/10 10:39:25;;;;;;;;;;;;;;;21.50;65.01;99590.34;7315985;19;129970;-38
2022/10/10 10:42:10;;;;;;;;;;;;;;;21.47;65.07;99580.16;7312446;19;130848;-38
2022/10/10 10:44:48;;;;;;;;;;;;;;;21.49;65.60;99581.66;7317290;19;129804;-38
2022/10/10 10:47:26;;;;;;;;;;;;;;;21.48;65.74;99574.78;7318434;19;129066;-39
2022/10/10 10:49:51;;;;;;;;;;;;;;;21.45;65.87;99567.19;7317348;19;130639;-40
2022/10/10 10:52:16;;;;;;;;;;;;;;;21.50;65.89;99572.84;7317286;19;128961;-38
2022/10/10 10:54:41;;;;;;;;;;;;;;;21.49;65.21;99567.75;7317318;19;129762;-38
2022/10/10 10:57:15;;;;;;;;;;;;;;;21.51;65.81;99571.88;7315522;19;130640;-37
2022/10/10 10:59:56;;;;;;;;;;;;;;;21.47;65.65;99560.03;7318905;19;129398;-39
2022/10/10 11:02:39;;;;;;;;;;;;;;;21.47;65.64;99554.81;7317166;19;129659;-38
2022/10/10 11:05:04;;;;;;;;;;;;;;;21.48;65.71;99556.47;7314280;19;129092;-37
2022/10/10 11:07:34;;;;;;;;;;;;;;;21.48;65.58;99553.88;7316709;19;129412;-37
2022/10/10 11:10:07;;;;;;;;;;;;;;;21.37;65.58;99535.69;7317520;19;129258;-39
2022/10/10 11:12:32;;;;;;;;;;;;;;;21.49;65.28;99537.19;7316682;19;129091;-38
2022/10/10 11:15:24;;;;;;;;;;;;;;;21.47;65.72;99554.00;7316511;19;129575;-39
2022/10/10 11:18:11;;;;;;;;;;;;;;;21.50;65.21;99538.81;7315976;19;129129;-37
2022/10/10 11:20:44;;;;;;;;;;;;;;;21.46;65.63;99527.00;7317191;19;129831;-39
2022/10/10 11:23:21;;;;;;;;;;;;;;;21.47;65.22;99531.28;7315753;19;128848;-37
2022/10/10 11:25:51;;;;;;;;;;;;;;;21.43;65.38;99537.75;7315733;19;128919;-39
2022/10/10 11:28:24;;;;;;;;;;;;;;;21.45;65.70;99535.81;7317133;19;129559;-40
2022/10/10 11:30:54;;;;;;;;;;;;;;;21.49;65.58;99537.19;7316854;19;129440;-37
2022/10/10 11:33:23;;;;;;;;;;;;;;;21.51;65.95;99531.81;7316332;19;128834;-37
2022/10/10 11:36:00;;;;;;;;;;;;;;;21.48;65.71;99530.31;7315025;19;128912;-40
2022/10/10 11:38:43;;;;;;;;;;;;;;;21.47;65.79;99531.28;7315790;19;130239;-38
2022/10/10 11:41:27;;;;;;;;;;;;;;;21.46;66.02;99526.19;7316793;19;130553;-38
2022/10/10 11:43:59;;;;;;;;;;;;;;;21.44;66.01;99522.88;7316440;19;129678;-39
2022/10/10 11:46:28;;;;;;;;;;;;;;;21.49;65.89;99525.91;7313576;19;129281;-39
2022/10/10 11:49:00;;;;;;;;;;;;;;;21.42;65.26;99530.88;7317177;19;130387;-39
2022/10/10 11:52:04;;;;;;;;;;;;;;;21.47;65.43;99528.66;7315134;19;131230;-37
2022/10/10 11:54:39;;;;;;;;;;;;;;;21.44;65.93;99523.72;7311883;19;129376;-37
2022/10/10 11:57:10;;;;;;;;;;;;;;;21.46;65.40;99524.41;7311921;19;128974;-36
2022/10/10 11:59:40;;;;;;;;;;;;;;;21.48;65.82;99519.03;7313854;19;129432;-38
2022/10/10 12:02:16;;;;;;;;;;;;;;;21.49;65.90;99524.13;7314816;19;129460;-38
2022/10/10 12:04:41;;;;;;;;;;;;;;;21.44;65.78;99526.31;7315665;19;129232;-39
2022/10/10 12:07:12;;;;;;;;;;;;;;;21.35;65.69;99511.50;7315314;19;129443;-38
2022/10/10 12:09:40;;;;;;;;;;;;;;;21.44;65.60;99521.09;7314319;19;129765;-38
2022/10/10 12:12:14;;;;;;;;;;;;;;;21.46;65.89;99527.00;7314889;19;131279;-38
2022/10/10 12:14:41;;;;;;;;;;;;;;;21.41;65.69;99505.69;7314550;19;129321;-36
2022/10/10 12:17:17;;;;;;;;;;;;;;;21.49;65.87;99511.03;7314956;19;129308;-38
2022/10/10 12:19:46;;;;;;;;;;;;;;;21.49;65.65;99511.03;7314364;19;128862;-39
2022/10/10 12:22:21;;;;;;;;;;;;;;;21.47;65.23;99512.97;7315858;19;129236;-38
2022/10/10 12:25:05;;;;;;;;;;;;;;;21.49;65.62;99500.56;7296166;19;129045;-42
2022/10/10 12:27:50;;;;;;;;;;;;;;;21.52;65.15;99509.91;7312180;19;130303;-39
2022/10/10 12:30:24;;;;;;;;;;;;;;;21.55;65.46;99507.84;7312423;19;129689;-38
2022/10/10 12:32:53;;;;;;;;;;;;;;;21.50;65.91;99496.19;7312963;19;129648;-39
2022/10/10 12:35:32;;;;;;;;;;;;;;;21.50;65.35;99504.81;7310898;19;129091;-40
2022/10/10 12:38:04;;;;;;;;;;;;;;;21.46;65.98;99493.00;7305827;19;128982;-40
2022/10/10 12:40:30;;;;;;;;;;;;;;;21.46;65.96;99498.25;7314488;19;130241;-37